sensor_id;sensor_type;location;lat;lon;timestamp;P1;durP1;ratioP1;P2;durP2;ratioP2
73693;SDS011;61997;53.974;11.670;2023-07-29T00:00:51;2.95;;;2.10;;
73693;SDS011;61997;53.974;11.670;2023-07-29T00:03:17;3.45;;;2.05;;
73693;SDS011;61997;53.974;11.670;2023-07-29T00:05:42;3.53;;;1.95;;
73693;SDS011;61997;53.974;11.670;2023-07-29T00:08:08;4.93;;;3.13;;
73693;SDS011;61997;53.974;11.670;2023-07-29T00:10:35;5.57;;;3.00;;
73693;SDS011;61997;53.974;11.670;2023-07-29T00:13:02;4.15;;;3.20;;
73693;SDS011;61997;53.974;11.670;2023-07-29T00:15:27;5.82;;;3.20;;
73693;SDS011;61997;53.974;11.670;2023-07-29T00:17:53;5.47;;;3.45;;
73693;SDS011;61997;53.974;11.670;2023-07-29T00:20:18;5.60;;;3.38;;
73693;SDS011;61997;53.974;11.670;2023-07-29T00:22:44;5.63;;;4.00;;
73693;SDS011;61997;53.974;11.670;2023-07-29T00:25:09;8.38;;;4.85;;
73693;SDS011;61997;53.974;11.670;2023-07-29T00:27:34;6.25;;;3.97;;
73693;SDS011;61997;53.974;11.670;2023-07-29T00:30:00;5.97;;;4.25;;
73693;SDS011;61997;53.974;11.670;2023-07-29T00:32:26;7.35;;;3.78;;
73693;SDS011;61997;53.974;11.670;2023-07-29T00:37:19;6.30;;;3.57;;
73693;SDS011;61997;53.974;11.670;2023-07-29T00:39:44;5.60;;;3.45;;
73693;SDS011;61997;53.974;11.670;2023-07-29T00:42:09;5.65;;;3.33;;
73693;SDS011;61997;53.974;11.670;2023-07-29T00:44:35;5.50;;;3.17;;
73693;SDS011;61997;53.974;11.670;2023-07-29T00:47:00;4.95;;;3.72;;
73693;SDS011;61997;53.974;11.670;2023-07-29T00:49:27;6.90;;;3.45;;
73693;SDS011;61997;53.974;11.670;2023-07-29T00:51:53;5.68;;;3.60;;
73693;SDS011;61997;53.974;11.670;2023-07-29T00:54:18;5.93;;;3.40;;
73693;SDS011;61997;53.974;11.670;2023-07-29T00:56:44;5.20;;;3.40;;
73693;SDS011;61997;53.974;11.670;2023-07-29T00:59:09;5.75;;;3.58;;
73693;SDS011;61997;53.974;11.670;2023-07-29T01:01:35;4.78;;;3.05;;
73693;SDS011;61997;53.974;11.670;2023-07-29T01:04:01;5.05;;;3.50;;
73693;SDS011;61997;53.974;11.670;2023-07-29T01:06:33;5.60;;;3.38;;
73693;SDS011;61997;53.974;11.670;2023-07-29T01:09:30;5.60;;;2.85;;
73693;SDS011;61997;53.974;11.670;2023-07-29T01:14:59;4.65;;;2.83;;
73693;SDS011;61997;53.974;11.670;2023-07-29T01:17:30;5.15;;;3.17;;
73693;SDS011;61997;53.974;11.670;2023-07-29T01:22:34;4.28;;;3.10;;
73693;SDS011;61997;53.974;11.670;2023-07-29T01:25:00;5.10;;;2.92;;
73693;SDS011;61997;53.974;11.670;2023-07-29T01:27:26;4.35;;;2.90;;
73693;SDS011;61997;53.974;11.670;2023-07-29T01:29:52;4.80;;;3.00;;
73693;SDS011;61997;53.974;11.670;2023-07-29T01:37:49;4.78;;;2.80;;
73693;SDS011;61997;53.974;11.670;2023-07-29T01:40:18;4.13;;;2.72;;
73693;SDS011;61997;53.974;11.670;2023-07-29T01:42:46;4.72;;;2.85;;
73693;SDS011;61997;53.974;11.670;2023-07-29T01:45:12;4.40;;;2.65;;
73693;SDS011;61997;53.974;11.670;2023-07-29T01:47:37;4.68;;;2.67;;
73693;SDS011;61997;53.974;11.670;2023-07-29T01:50:05;4.30;;;2.70;;
73693;SDS011;61997;53.974;11.670;2023-07-29T01:52:31;2.65;;;2.20;;
73693;SDS011;61997;53.974;11.670;2023-07-29T01:54:57;3.30;;;2.58;;
73693;SDS011;61997;53.974;11.670;2023-07-29T01:57:22;4.00;;;2.40;;
73693;SDS011;61997;53.974;11.670;2023-07-29T01:59:47;4.60;;;2.00;;
73693;SDS011;61997;53.974;11.670;2023-07-29T02:02:13;3.83;;;2.35;;
73693;SDS011;61997;53.974;11.670;2023-07-29T02:04:38;2.92;;;2.22;;
73693;SDS011;61997;53.974;11.670;2023-07-29T02:07:03;3.72;;;2.20;;
73693;SDS011;61997;53.974;11.670;2023-07-29T02:09:29;3.55;;;2.65;;
73693;SDS011;61997;53.974;11.670;2023-07-29T02:11:56;4.32;;;2.30;;
73693;SDS011;61997;53.974;11.670;2023-07-29T02:14:21;3.53;;;2.85;;
73693;SDS011;61997;53.974;11.670;2023-07-29T02:16:46;3.55;;;2.20;;
73693;SDS011;61997;53.974;11.670;2023-07-29T02:19:12;2.42;;;1.70;;
73693;SDS011;61997;53.974;11.670;2023-07-29T02:21:37;3.00;;;2.20;;
73693;SDS011;61997;53.974;11.670;2023-07-29T02:24:03;4.57;;;2.60;;
73693;SDS011;61997;53.974;11.670;2023-07-29T02:26:28;3.33;;;2.00;;
73693;SDS011;61997;53.974;11.670;2023-07-29T02:28:53;3.38;;;1.80;;
73693;SDS011;61997;53.974;11.670;2023-07-29T02:31:23;3.03;;;1.83;;
73693;SDS011;61997;53.974;11.670;2023-07-29T02:33:49;2.85;;;1.98;;
73693;SDS011;61997;53.974;11.670;2023-07-29T02:36:14;3.70;;;2.20;;
73693;SDS011;61997;53.974;11.670;2023-07-29T02:38:40;3.83;;;2.50;;
73693;SDS011;61997;53.974;11.670;2023-07-29T02:41:06;3.38;;;2.08;;
73693;SDS011;61997;53.974;11.670;2023-07-29T02:43:34;3.10;;;1.98;;
73693;SDS011;61997;53.974;11.670;2023-07-29T02:45:59;3.25;;;1.95;;
73693;SDS011;61997;53.974;11.670;2023-07-29T02:48:25;2.58;;;2.08;;
73693;SDS011;61997;53.974;11.670;2023-07-29T02:50:50;2.95;;;2.28;;
73693;SDS011;61997;53.974;11.670;2023-07-29T02:53:16;3.92;;;2.08;;
73693;SDS011;61997;53.974;11.670;2023-07-29T02:55:41;3.22;;;1.95;;
73693;SDS011;61997;53.974;11.670;2023-07-29T02:58:07;2.50;;;1.67;;
73693;SDS011;61997;53.974;11.670;2023-07-29T03:00:33;3.10;;;1.70;;
73693;SDS011;61997;53.974;11.670;2023-07-29T03:02:59;3.38;;;2.17;;
73693;SDS011;61997;53.974;11.670;2023-07-29T03:05:28;2.92;;;1.85;;
73693;SDS011;61997;53.974;11.670;2023-07-29T03:10:19;2.40;;;1.80;;
73693;SDS011;61997;53.974;11.670;2023-07-29T03:12:45;2.53;;;1.90;;
73693;SDS011;61997;53.974;11.670;2023-07-29T03:15:11;2.75;;;1.55;;
73693;SDS011;61997;53.974;11.670;2023-07-29T03:17:36;2.70;;;2.00;;
73693;SDS011;61997;53.974;11.670;2023-07-29T03:20:02;2.45;;;1.95;;
73693;SDS011;61997;53.974;11.670;2023-07-29T03:22:27;1.98;;;1.55;;
73693;SDS011;61997;53.974;11.670;2023-07-29T03:24:53;2.80;;;2.05;;
73693;SDS011;61997;53.974;11.670;2023-07-29T03:27:18;3.03;;;1.80;;
73693;SDS011;61997;53.974;11.670;2023-07-29T03:29:43;3.25;;;1.75;;
73693;SDS011;61997;53.974;11.670;2023-07-29T03:32:09;2.78;;;1.98;;
73693;SDS011;61997;53.974;11.670;2023-07-29T03:34:34;2.58;;;1.77;;
73693;SDS011;61997;53.974;11.670;2023-07-29T03:37:00;3.15;;;1.67;;
73693;SDS011;61997;53.974;11.670;2023-07-29T03:39:26;2.67;;;1.92;;
73693;SDS011;61997;53.974;11.670;2023-07-29T03:41:51;2.95;;;1.70;;
73693;SDS011;61997;53.974;11.670;2023-07-29T03:44:17;2.53;;;1.60;;
73693;SDS011;61997;53.974;11.670;2023-07-29T03:46:43;2.35;;;1.75;;
73693;SDS011;61997;53.974;11.670;2023-07-29T03:49:09;2.40;;;1.80;;
73693;SDS011;61997;53.974;11.670;2023-07-29T03:51:34;2.63;;;1.65;;
73693;SDS011;61997;53.974;11.670;2023-07-29T03:54:00;4.90;;;1.90;;
73693;SDS011;61997;53.974;11.670;2023-07-29T03:56:25;2.58;;;1.48;;
73693;SDS011;61997;53.974;11.670;2023-07-29T03:58:51;2.30;;;1.75;;
73693;SDS011;61997;53.974;11.670;2023-07-29T04:01:17;2.50;;;1.60;;
73693;SDS011;61997;53.974;11.670;2023-07-29T04:03:44;3.17;;;1.80;;
73693;SDS011;61997;53.974;11.670;2023-07-29T04:06:10;2.58;;;1.77;;
73693;SDS011;61997;53.974;11.670;2023-07-29T04:08:35;2.55;;;1.65;;
73693;SDS011;61997;53.974;11.670;2023-07-29T04:11:00;1.98;;;1.65;;
73693;SDS011;61997;53.974;11.670;2023-07-29T04:13:26;2.40;;;1.63;;
73693;SDS011;61997;53.974;11.670;2023-07-29T04:15:51;2.08;;;1.58;;
73693;SDS011;61997;53.974;11.670;2023-07-29T04:18:17;2.92;;;1.90;;
73693;SDS011;61997;53.974;11.670;2023-07-29T04:20:42;2.42;;;1.63;;
73693;SDS011;61997;53.974;11.670;2023-07-29T04:23:07;2.10;;;1.60;;
73693;SDS011;61997;53.974;11.670;2023-07-29T04:25:33;2.17;;;1.60;;
73693;SDS011;61997;53.974;11.670;2023-07-29T04:27:58;2.17;;;1.83;;
73693;SDS011;61997;53.974;11.670;2023-07-29T04:30:24;4.72;;;2.00;;
73693;SDS011;61997;53.974;11.670;2023-07-29T04:32:49;2.42;;;1.70;;
73693;SDS011;61997;53.974;11.670;2023-07-29T04:35:15;2.38;;;1.67;;
73693;SDS011;61997;53.974;11.670;2023-07-29T04:37:40;1.75;;;1.45;;
73693;SDS011;61997;53.974;11.670;2023-07-29T04:40:06;2.17;;;1.58;;
73693;SDS011;61997;53.974;11.670;2023-07-29T04:42:32;2.17;;;1.50;;
73693;SDS011;61997;53.974;11.670;2023-07-29T04:44:57;2.15;;;1.73;;
73693;SDS011;61997;53.974;11.670;2023-07-29T04:47:23;2.10;;;1.45;;
73693;SDS011;61997;53.974;11.670;2023-07-29T04:49:48;2.03;;;1.55;;
73693;SDS011;61997;53.974;11.670;2023-07-29T04:52:13;2.38;;;1.80;;
73693;SDS011;61997;53.974;11.670;2023-07-29T04:54:40;2.33;;;1.60;;
73693;SDS011;61997;53.974;11.670;2023-07-29T04:57:05;2.15;;;1.30;;
73693;SDS011;61997;53.974;11.670;2023-07-29T04:59:31;2.95;;;1.65;;
73693;SDS011;61997;53.974;11.670;2023-07-29T05:01:56;2.78;;;1.80;;
73693;SDS011;61997;53.974;11.670;2023-07-29T05:04:21;2.45;;;1.65;;
73693;SDS011;61997;53.974;11.670;2023-07-29T05:06:47;2.10;;;1.52;;
73693;SDS011;61997;53.974;11.670;2023-07-29T05:09:13;2.25;;;1.55;;
73693;SDS011;61997;53.974;11.670;2023-07-29T05:11:40;2.25;;;1.60;;
73693;SDS011;61997;53.974;11.670;2023-07-29T05:14:06;1.95;;;1.35;;
73693;SDS011;61997;53.974;11.670;2023-07-29T05:16:31;2.08;;;1.70;;
73693;SDS011;61997;53.974;11.670;2023-07-29T05:18:57;2.13;;;1.52;;
73693;SDS011;61997;53.974;11.670;2023-07-29T05:21:22;2.47;;;1.80;;
73693;SDS011;61997;53.974;11.670;2023-07-29T05:23:48;1.90;;;1.60;;
73693;SDS011;61997;53.974;11.670;2023-07-29T05:26:13;2.33;;;1.60;;
73693;SDS011;61997;53.974;11.670;2023-07-29T05:28:38;2.28;;;1.50;;
73693;SDS011;61997;53.974;11.670;2023-07-29T05:31:04;2.65;;;1.55;;
73693;SDS011;61997;53.974;11.670;2023-07-29T05:33:29;2.55;;;1.35;;
73693;SDS011;61997;53.974;11.670;2023-07-29T05:35:55;2.17;;;1.48;;
73693;SDS011;61997;53.974;11.670;2023-07-29T05:38:20;2.13;;;1.50;;
73693;SDS011;61997;53.974;11.670;2023-07-29T05:40:47;2.10;;;1.55;;
73693;SDS011;61997;53.974;11.670;2023-07-29T05:43:13;2.03;;;1.60;;
73693;SDS011;61997;53.974;11.670;2023-07-29T05:45:39;2.05;;;1.50;;
73693;SDS011;61997;53.974;11.670;2023-07-29T05:48:05;2.38;;;1.58;;
73693;SDS011;61997;53.974;11.670;2023-07-29T05:50:30;2.33;;;1.60;;
73693;SDS011;61997;53.974;11.670;2023-07-29T05:52:55;1.83;;;1.33;;
73693;SDS011;61997;53.974;11.670;2023-07-29T05:55:21;1.98;;;1.42;;
73693;SDS011;61997;53.974;11.670;2023-07-29T05:57:46;1.63;;;1.30;;
73693;SDS011;61997;53.974;11.670;2023-07-29T06:00:12;2.35;;;1.58;;
73693;SDS011;61997;53.974;11.670;2023-07-29T06:02:37;2.53;;;1.52;;
73693;SDS011;61997;53.974;11.670;2023-07-29T06:05:03;2.22;;;1.55;;
73693;SDS011;61997;53.974;11.670;2023-07-29T06:07:29;2.10;;;1.50;;
73693;SDS011;61997;53.974;11.670;2023-07-29T06:09:55;2.35;;;1.77;;
73693;SDS011;61997;53.974;11.670;2023-07-29T06:12:21;2.72;;;1.60;;
73693;SDS011;61997;53.974;11.670;2023-07-29T06:14:46;2.33;;;1.35;;
73693;SDS011;61997;53.974;11.670;2023-07-29T06:17:11;2.65;;;1.80;;
73693;SDS011;61997;53.974;11.670;2023-07-29T06:19:37;1.92;;;1.40;;
73693;SDS011;61997;53.974;11.670;2023-07-29T06:22:03;1.95;;;1.50;;
73693;SDS011;61997;53.974;11.670;2023-07-29T06:24:30;2.05;;;1.67;;
73693;SDS011;61997;53.974;11.670;2023-07-29T06:26:55;2.20;;;1.45;;
73693;SDS011;61997;53.974;11.670;2023-07-29T06:29:20;2.05;;;1.50;;
73693;SDS011;61997;53.974;11.670;2023-07-29T06:31:46;1.73;;;1.30;;
73693;SDS011;61997;53.974;11.670;2023-07-29T06:34:11;2.25;;;1.60;;
73693;SDS011;61997;53.974;11.670;2023-07-29T06:36:37;2.40;;;1.70;;
73693;SDS011;61997;53.974;11.670;2023-07-29T06:39:02;2.50;;;1.75;;
73693;SDS011;61997;53.974;11.670;2023-07-29T06:41:28;2.65;;;1.40;;
73693;SDS011;61997;53.974;11.670;2023-07-29T06:43:53;2.75;;;1.40;;
73693;SDS011;61997;53.974;11.670;2023-07-29T06:46:18;2.15;;;1.42;;
73693;SDS011;61997;53.974;11.670;2023-07-29T06:48:44;1.98;;;1.48;;
73693;SDS011;61997;53.974;11.670;2023-07-29T06:51:09;2.08;;;1.38;;
73693;SDS011;61997;53.974;11.670;2023-07-29T06:53:34;2.28;;;1.65;;
73693;SDS011;61997;53.974;11.670;2023-07-29T06:56:00;1.88;;;1.60;;
73693;SDS011;61997;53.974;11.670;2023-07-29T06:58:25;2.22;;;1.63;;
73693;SDS011;61997;53.974;11.670;2023-07-29T07:00:51;2.00;;;1.40;;
73693;SDS011;61997;53.974;11.670;2023-07-29T07:03:16;1.98;;;1.50;;
73693;SDS011;61997;53.974;11.670;2023-07-29T07:05:41;2.00;;;1.50;;
73693;SDS011;61997;53.974;11.670;2023-07-29T07:08:07;2.42;;;1.80;;
73693;SDS011;61997;53.974;11.670;2023-07-29T07:10:32;1.90;;;1.60;;
73693;SDS011;61997;53.974;11.670;2023-07-29T07:12:59;1.92;;;1.48;;
73693;SDS011;61997;53.974;11.670;2023-07-29T07:15:24;2.17;;;1.50;;
73693;SDS011;61997;53.974;11.670;2023-07-29T07:17:50;2.40;;;1.85;;
73693;SDS011;61997;53.974;11.670;2023-07-29T07:20:16;2.30;;;1.70;;
73693;SDS011;61997;53.974;11.670;2023-07-29T07:22:41;2.03;;;1.60;;
73693;SDS011;61997;53.974;11.670;2023-07-29T07:25:07;2.58;;;1.83;;
73693;SDS011;61997;53.974;11.670;2023-07-29T07:27:33;2.30;;;1.35;;
73693;SDS011;61997;53.974;11.670;2023-07-29T07:29:58;2.58;;;1.75;;
73693;SDS011;61997;53.974;11.670;2023-07-29T07:32:23;2.22;;;1.60;;
73693;SDS011;61997;53.974;11.670;2023-07-29T07:34:49;2.15;;;1.45;;
73693;SDS011;61997;53.974;11.670;2023-07-29T07:37:15;2.35;;;1.77;;
73693;SDS011;61997;53.974;11.670;2023-07-29T07:39:41;2.47;;;1.70;;
73693;SDS011;61997;53.974;11.670;2023-07-29T07:42:06;2.78;;;1.75;;
73693;SDS011;61997;53.974;11.670;2023-07-29T07:44:32;2.40;;;1.73;;
73693;SDS011;61997;53.974;11.670;2023-07-29T07:46:57;2.80;;;1.90;;
73693;SDS011;61997;53.974;11.670;2023-07-29T07:49:23;2.33;;;1.77;;
73693;SDS011;61997;53.974;11.670;2023-07-29T07:51:48;2.60;;;1.90;;
73693;SDS011;61997;53.974;11.670;2023-07-29T07:54:13;2.08;;;1.60;;
73693;SDS011;61997;53.974;11.670;2023-07-29T07:56:39;2.40;;;1.80;;
73693;SDS011;61997;53.974;11.670;2023-07-29T07:59:04;2.53;;;1.95;;
73693;SDS011;61997;53.974;11.670;2023-07-29T08:01:36;2.53;;;1.73;;
73693;SDS011;61997;53.974;11.670;2023-07-29T08:04:02;2.28;;;1.98;;
73693;SDS011;61997;53.974;11.670;2023-07-29T08:06:28;3.67;;;2.40;;
73693;SDS011;61997;53.974;11.670;2023-07-29T08:08:54;2.72;;;1.80;;
73693;SDS011;61997;53.974;11.670;2023-07-29T08:11:20;2.97;;;2.00;;
73693;SDS011;61997;53.974;11.670;2023-07-29T08:13:46;2.20;;;2.00;;
73693;SDS011;61997;53.974;11.670;2023-07-29T08:16:11;3.08;;;1.90;;
73693;SDS011;61997;53.974;11.670;2023-07-29T08:18:37;2.50;;;1.80;;
73693;SDS011;61997;53.974;11.670;2023-07-29T08:21:02;2.50;;;2.05;;
73693;SDS011;61997;53.974;11.670;2023-07-29T08:23:29;2.05;;;1.75;;
73693;SDS011;61997;53.974;11.670;2023-07-29T08:25:55;2.90;;;2.00;;
73693;SDS011;61997;53.974;11.670;2023-07-29T08:28:26;3.28;;;1.92;;
73693;SDS011;61997;53.974;11.670;2023-07-29T08:30:51;2.33;;;2.08;;
73693;SDS011;61997;53.974;11.670;2023-07-29T08:33:16;3.00;;;2.10;;
73693;SDS011;61997;53.974;11.670;2023-07-29T08:35:42;3.30;;;2.33;;
73693;SDS011;61997;53.974;11.670;2023-07-29T08:38:07;2.30;;;2.03;;
73693;SDS011;61997;53.974;11.670;2023-07-29T08:40:34;2.55;;;1.90;;
73693;SDS011;61997;53.974;11.670;2023-07-29T08:43:01;2.30;;;2.00;;
73693;SDS011;61997;53.974;11.670;2023-07-29T08:45:31;2.70;;;1.90;;
73693;SDS011;61997;53.974;11.670;2023-07-29T08:47:59;2.83;;;2.20;;
73693;SDS011;61997;53.974;11.670;2023-07-29T08:52:53;2.30;;;1.80;;
73693;SDS011;61997;53.974;11.670;2023-07-29T08:55:18;3.30;;;2.35;;
73693;SDS011;61997;53.974;11.670;2023-07-29T08:57:44;2.55;;;2.35;;
73693;SDS011;61997;53.974;11.670;2023-07-29T09:00:10;2.90;;;1.98;;
73693;SDS011;61997;53.974;11.670;2023-07-29T09:02:36;4.07;;;2.38;;
73693;SDS011;61997;53.974;11.670;2023-07-29T09:05:01;2.40;;;2.13;;
73693;SDS011;61997;53.974;11.670;2023-07-29T09:07:27;2.60;;;2.10;;
73693;SDS011;61997;53.974;11.670;2023-07-29T09:09:53;2.78;;;2.20;;
73693;SDS011;61997;53.974;11.670;2023-07-29T09:12:18;3.85;;;2.50;;
73693;SDS011;61997;53.974;11.670;2023-07-29T09:14:44;3.20;;;2.38;;
73693;SDS011;61997;53.974;11.670;2023-07-29T09:17:09;2.97;;;2.45;;
73693;SDS011;61997;53.974;11.670;2023-07-29T09:19:35;2.85;;;2.20;;
73693;SDS011;61997;53.974;11.670;2023-07-29T09:22:00;3.03;;;2.60;;
73693;SDS011;61997;53.974;11.670;2023-07-29T09:24:25;3.13;;;2.50;;
73693;SDS011;61997;53.974;11.670;2023-07-29T09:26:54;2.47;;;2.17;;
73693;SDS011;61997;53.974;11.670;2023-07-29T09:29:24;3.80;;;2.53;;
73693;SDS011;61997;53.974;11.670;2023-07-29T09:31:53;3.00;;;2.10;;
73693;SDS011;61997;53.974;11.670;2023-07-29T09:34:18;3.45;;;2.33;;
73693;SDS011;61997;53.974;11.670;2023-07-29T09:36:43;3.28;;;2.30;;
73693;SDS011;61997;53.974;11.670;2023-07-29T09:39:12;3.25;;;2.20;;
73693;SDS011;61997;53.974;11.670;2023-07-29T09:41:40;3.08;;;2.40;;
73693;SDS011;61997;53.974;11.670;2023-07-29T09:44:06;3.05;;;2.25;;
73693;SDS011;61997;53.974;11.670;2023-07-29T09:46:33;3.00;;;2.13;;
73693;SDS011;61997;53.974;11.670;2023-07-29T09:49:00;2.53;;;2.10;;
73693;SDS011;61997;53.974;11.670;2023-07-29T09:51:27;3.17;;;2.60;;
73693;SDS011;61997;53.974;11.670;2023-07-29T09:53:52;2.65;;;2.08;;
73693;SDS011;61997;53.974;11.670;2023-07-29T09:56:18;2.80;;;2.10;;
73693;SDS011;61997;53.974;11.670;2023-07-29T09:58:50;3.17;;;2.22;;
73693;SDS011;61997;53.974;11.670;2023-07-29T10:01:15;3.45;;;2.50;;
73693;SDS011;61997;53.974;11.670;2023-07-29T10:03:41;2.90;;;2.60;;
73693;SDS011;61997;53.974;11.670;2023-07-29T10:06:07;3.08;;;2.20;;
73693;SDS011;61997;53.974;11.670;2023-07-29T10:08:33;2.53;;;2.08;;
73693;SDS011;61997;53.974;11.670;2023-07-29T10:11:03;3.22;;;2.30;;
73693;SDS011;61997;53.974;11.670;2023-07-29T10:13:30;2.50;;;2.30;;
73693;SDS011;61997;53.974;11.670;2023-07-29T10:15:56;3.10;;;2.60;;
73693;SDS011;61997;53.974;11.670;2023-07-29T10:18:22;2.75;;;2.20;;
73693;SDS011;61997;53.974;11.670;2023-07-29T10:20:48;2.47;;;2.00;;
73693;SDS011;61997;53.974;11.670;2023-07-29T10:23:15;3.05;;;2.20;;
73693;SDS011;61997;53.974;11.670;2023-07-29T10:25:44;2.70;;;2.13;;
73693;SDS011;61997;53.974;11.670;2023-07-29T10:28:27;2.70;;;2.03;;
73693;SDS011;61997;53.974;11.670;2023-07-29T10:30:55;2.60;;;2.00;;
73693;SDS011;61997;53.974;11.670;2023-07-29T10:33:30;3.00;;;2.30;;
73693;SDS011;61997;53.974;11.670;2023-07-29T10:36:00;2.85;;;2.30;;
73693;SDS011;61997;53.974;11.670;2023-07-29T10:38:28;3.03;;;2.20;;
73693;SDS011;61997;53.974;11.670;2023-07-29T10:40:57;2.70;;;2.00;;
73693;SDS011;61997;53.974;11.670;2023-07-29T10:43:26;2.25;;;2.00;;
73693;SDS011;61997;53.974;11.670;2023-07-29T10:45:55;2.75;;;2.20;;
73693;SDS011;61997;53.974;11.670;2023-07-29T10:48:40;3.50;;;2.10;;
73693;SDS011;61997;53.974;11.670;2023-07-29T10:53:58;3.22;;;2.45;;
73693;SDS011;61997;53.974;11.670;2023-07-29T10:56:37;3.42;;;2.78;;
73693;SDS011;61997;53.974;11.670;2023-07-29T11:09:41;2.72;;;2.33;;
73693;SDS011;61997;53.974;11.670;2023-07-29T11:17:35;3.05;;;2.53;;
73693;SDS011;61997;53.974;11.670;2023-07-29T11:20:02;3.72;;;2.22;;
73693;SDS011;61997;53.974;11.670;2023-07-29T11:22:28;3.50;;;2.28;;
73693;SDS011;61997;53.974;11.670;2023-07-29T11:24:54;3.15;;;2.35;;
73693;SDS011;61997;53.974;11.670;2023-07-29T11:27:19;3.30;;;2.58;;
73693;SDS011;61997;53.974;11.670;2023-07-29T11:29:44;3.33;;;2.40;;
73693;SDS011;61997;53.974;11.670;2023-07-29T11:32:10;4.20;;;2.70;;
73693;SDS011;61997;53.974;11.670;2023-07-29T11:34:35;4.78;;;2.97;;
73693;SDS011;61997;53.974;11.670;2023-07-29T11:37:02;2.92;;;2.58;;
73693;SDS011;61997;53.974;11.670;2023-07-29T11:39:29;3.65;;;2.70;;
73693;SDS011;61997;53.974;11.670;2023-07-29T11:41:54;3.13;;;2.40;;
73693;SDS011;61997;53.974;11.670;2023-07-29T11:44:20;2.97;;;2.13;;
73693;SDS011;61997;53.974;11.670;2023-07-29T11:46:45;3.75;;;2.25;;
73693;SDS011;61997;53.974;11.670;2023-07-29T11:49:10;3.70;;;2.70;;
73693;SDS011;61997;53.974;11.670;2023-07-29T11:51:36;3.33;;;2.50;;
73693;SDS011;61997;53.974;11.670;2023-07-29T11:54:02;2.92;;;2.35;;
73693;SDS011;61997;53.974;11.670;2023-07-29T11:56:27;3.58;;;2.60;;
73693;SDS011;61997;53.974;11.670;2023-07-29T11:58:55;4.00;;;2.45;;
73693;SDS011;61997;53.974;11.670;2023-07-29T12:01:20;4.45;;;2.78;;
73693;SDS011;61997;53.974;11.670;2023-07-29T12:03:46;4.63;;;2.30;;
73693;SDS011;61997;53.974;11.670;2023-07-29T12:06:11;4.50;;;2.50;;
73693;SDS011;61997;53.974;11.670;2023-07-29T12:08:37;2.70;;;2.08;;
73693;SDS011;61997;53.974;11.670;2023-07-29T12:11:02;3.13;;;2.30;;
73693;SDS011;61997;53.974;11.670;2023-07-29T12:13:28;3.50;;;2.50;;
73693;SDS011;61997;53.974;11.670;2023-07-29T12:16:00;3.92;;;2.60;;
73693;SDS011;61997;53.974;11.670;2023-07-29T12:18:29;3.75;;;2.40;;
73693;SDS011;61997;53.974;11.670;2023-07-29T12:20:56;4.75;;;2.58;;
73693;SDS011;61997;53.974;11.670;2023-07-29T12:23:25;3.92;;;2.17;;
73693;SDS011;61997;53.974;11.670;2023-07-29T12:25:56;2.95;;;2.40;;
73693;SDS011;61997;53.974;11.670;2023-07-29T12:28:22;4.68;;;2.28;;
73693;SDS011;61997;53.974;11.670;2023-07-29T12:30:48;3.35;;;2.38;;
73693;SDS011;61997;53.974;11.670;2023-07-29T12:33:34;3.70;;;2.33;;
73693;SDS011;61997;53.974;11.670;2023-07-29T12:36:01;3.13;;;2.20;;
73693;SDS011;61997;53.974;11.670;2023-07-29T12:38:27;3.00;;;2.30;;
73693;SDS011;61997;53.974;11.670;2023-07-29T12:40:55;3.13;;;2.30;;
73693;SDS011;61997;53.974;11.670;2023-07-29T12:43:21;3.20;;;2.55;;
73693;SDS011;61997;53.974;11.670;2023-07-29T12:45:48;3.85;;;2.58;;
73693;SDS011;61997;53.974;11.670;2023-07-29T12:48:14;3.78;;;2.28;;
73693;SDS011;61997;53.974;11.670;2023-07-29T12:50:40;2.85;;;2.17;;
73693;SDS011;61997;53.974;11.670;2023-07-29T12:53:06;3.75;;;2.60;;
73693;SDS011;61997;53.974;11.670;2023-07-29T12:55:32;3.15;;;2.05;;
73693;SDS011;61997;53.974;11.670;2023-07-29T12:57:58;4.18;;;2.30;;
73693;SDS011;61997;53.974;11.670;2023-07-29T13:00:24;3.65;;;2.38;;
73693;SDS011;61997;53.974;11.670;2023-07-29T13:02:50;3.50;;;2.35;;
73693;SDS011;61997;53.974;11.670;2023-07-29T13:05:16;2.72;;;2.42;;
73693;SDS011;61997;53.974;11.670;2023-07-29T13:07:42;3.35;;;2.50;;
73693;SDS011;61997;53.974;11.670;2023-07-29T13:10:08;3.75;;;2.15;;
73693;SDS011;61997;53.974;11.670;2023-07-29T13:12:35;2.72;;;2.03;;
73693;SDS011;61997;53.974;11.670;2023-07-29T13:15:01;3.50;;;2.15;;
73693;SDS011;61997;53.974;11.670;2023-07-29T13:17:30;5.03;;;2.35;;
73693;SDS011;61997;53.974;11.670;2023-07-29T13:19:56;3.15;;;2.20;;
73693;SDS011;61997;53.974;11.670;2023-07-29T13:22:21;3.40;;;2.30;;
73693;SDS011;61997;53.974;11.670;2023-07-29T13:24:47;3.45;;;2.28;;
73693;SDS011;61997;53.974;11.670;2023-07-29T13:27:12;2.28;;;2.03;;
73693;SDS011;61997;53.974;11.670;2023-07-29T13:29:39;3.10;;;2.15;;
73693;SDS011;61997;53.974;11.670;2023-07-29T13:32:04;3.58;;;2.25;;
73693;SDS011;61997;53.974;11.670;2023-07-29T13:34:30;2.97;;;2.03;;
73693;SDS011;61997;53.974;11.670;2023-07-29T13:36:56;2.90;;;2.30;;
73693;SDS011;61997;53.974;11.670;2023-07-29T13:39:22;3.05;;;2.13;;
73693;SDS011;61997;53.974;11.670;2023-07-29T13:41:47;3.10;;;2.38;;
73693;SDS011;61997;53.974;11.670;2023-07-29T13:44:14;3.25;;;2.72;;
73693;SDS011;61997;53.974;11.670;2023-07-29T13:46:41;3.28;;;2.20;;
73693;SDS011;61997;53.974;11.670;2023-07-29T13:49:07;2.25;;;1.90;;
73693;SDS011;61997;53.974;11.670;2023-07-29T13:51:32;3.75;;;2.13;;
73693;SDS011;61997;53.974;11.670;2023-07-29T13:53:58;2.70;;;2.40;;
73693;SDS011;61997;53.974;11.670;2023-07-29T13:56:23;4.68;;;2.70;;
73693;SDS011;61997;53.974;11.670;2023-07-29T13:58:49;5.13;;;2.17;;
73693;SDS011;61997;53.974;11.670;2023-07-29T14:01:15;2.33;;;1.80;;
73693;SDS011;61997;53.974;11.670;2023-07-29T14:03:41;3.38;;;2.50;;
73693;SDS011;61997;53.974;11.670;2023-07-29T14:06:07;3.63;;;2.10;;
73693;SDS011;61997;53.974;11.670;2023-07-29T14:08:32;3.00;;;2.22;;
73693;SDS011;61997;53.974;11.670;2023-07-29T14:11:00;2.97;;;1.90;;
73693;SDS011;61997;53.974;11.670;2023-07-29T14:13:26;3.20;;;2.17;;
73693;SDS011;61997;53.974;11.670;2023-07-29T14:15:52;2.80;;;2.05;;
73693;SDS011;61997;53.974;11.670;2023-07-29T14:18:17;2.80;;;2.15;;
73693;SDS011;61997;53.974;11.670;2023-07-29T14:20:43;3.75;;;2.55;;
73693;SDS011;61997;53.974;11.670;2023-07-29T14:23:09;4.43;;;2.70;;
73693;SDS011;61997;53.974;11.670;2023-07-29T14:25:34;2.70;;;2.10;;
73693;SDS011;61997;53.974;11.670;2023-07-29T14:28:00;2.95;;;2.45;;
73693;SDS011;61997;53.974;11.670;2023-07-29T14:30:25;2.72;;;2.03;;
73693;SDS011;61997;53.974;11.670;2023-07-29T14:32:53;3.58;;;2.20;;
73693;SDS011;61997;53.974;11.670;2023-07-29T14:35:18;2.72;;;2.00;;
73693;SDS011;61997;53.974;11.670;2023-07-29T14:37:45;4.40;;;2.10;;
73693;SDS011;61997;53.974;11.670;2023-07-29T14:40:11;2.92;;;1.98;;
73693;SDS011;61997;53.974;11.670;2023-07-29T14:42:36;2.85;;;2.05;;
73693;SDS011;61997;53.974;11.670;2023-07-29T14:45:02;3.78;;;2.20;;
73693;SDS011;61997;53.974;11.670;2023-07-29T14:47:27;2.90;;;2.00;;
73693;SDS011;61997;53.974;11.670;2023-07-29T14:49:52;3.67;;;2.25;;
73693;SDS011;61997;53.974;11.670;2023-07-29T14:52:18;3.22;;;2.15;;
73693;SDS011;61997;53.974;11.670;2023-07-29T14:54:43;2.30;;;1.80;;
73693;SDS011;61997;53.974;11.670;2023-07-29T14:57:09;3.22;;;2.35;;
73693;SDS011;61997;53.974;11.670;2023-07-29T14:59:35;2.53;;;1.90;;
73693;SDS011;61997;53.974;11.670;2023-07-29T15:02:00;2.58;;;2.00;;
73693;SDS011;61997;53.974;11.670;2023-07-29T15:04:25;3.13;;;2.10;;